Tolhuin, Argentina

9:47 AM ART on December 22, 2014 (GMT -0300)
Ushuaia International Malvine Island | Change Station
CLOSE
Current Station
Airport
Location: Ushuaia,
Elevation: 69 ft
Nearby Weather Stations

Elev 69 ft 54.84 °S, 68.31 °W | Updated 47 minutes ago

Mostly Cloudy
Mostly Cloudy
46 °F
Feels Like 45 °F
N
4
Wind Variable Wind from NW

Today
High -- | Low -- °F
--% Chance of Precip.
Yesterday
High -- | Low -- °F
Precip. -- in
4:48 AM 10:06 PM
New Moon, 0% visible
Pressure 29.30 in
Visibility 6.2 miles
Clouds Mostly Cloudy 3500 ft
Mostly Cloudy 10000 ft
Windchill 45 °F
Dew Point 39 °F
Humidity 76%
Rainfall 0.00 in
Snow Depth Not available.
UV 2 out of 12
Pollen Not available.
Air Quality Not available.
Flu Activity Not available.
METAR SAWH 221200Z 32003KT 9999 BKN035 BKN100 08/04 Q0992

More Conditions Fewer Conditions

Pressure 29.30 in
Visibility 6.2 miles
Clouds Mostly Cloudy 3500 ft
Mostly Cloudy 10000 ft
Windchill 45 °F
Dew Point 39 °F
Humidity 76%
Rainfall 0.00 in
Snow Depth Not available.
UV 2 out of 12
Pollen Not available.
Air Quality Not available.
Flu Activity Not available.
METAR SAWH 221200Z 32003KT 9999 BKN035 BKN100 08/04 Q0992

More Conditions Fewer Conditions

10-Day Weather Forecast

Almanac

Astronomy

Dec. 22, 2014 Rise Set
Actual Time
Civil Twilight
Nautical Twilight
Astronomical Twilight
Moon
Length of Visible Light
Length of Day
Tomorrow will be .
, % of the Moon is Illuminated

Today's Extremes

Country Highs Country Lows

Community

WunderPhotos

Upload Photos

1,779,598 photos uploaded!

WunderBlogs® & News

Nearby

Air Quality

  Air Quality AQ Index Pollutant
Not available.

Snow Depth

Station Depth Elevation

Earthquake Activity

City Distance Mag. Time & Date
Minimum magnitude displayed is 2.5.

Coastal Water Temperatures

Place Temperature

Nearby Weather Stations